Aviation Digital Data Service (ADDS)

Output produced by METARs form (0519 UTC 25 May 2018)
found at http://www.aviationweather.gov/adds/metars/
 
FOOG 250500Z 20006KT 8000 SCT008 OVC030 25/24 Q1011
TAF FOOG 242300Z 2500/2524 24006KT 9999 SCT010 FEW020CB BKN030 
     TEMPO 2419/2421 TS 
     PROB30 
     TEMPO 2422/2506 4000 TSRA BKN006 FEW016CB OVC025
       
FOOL 250500Z 09004KT 9000 FEW010 23/23 Q1010 NOSIG
TAF FOOL 250500Z 2506/2612 12006KT 9999 SCT010 
     TEMPO 2515/2521 TS SCT010 FEW020CB 
     BECMG 262601/2604 BKN008 FEW018CB
       
FOON 250500Z VRB02KT 0200 FG BKN001 20/20 Q1013
FOON 250500Z VRB02KT 0200 FG BKN001 20/20 Q1013
FOOG 250500Z 20006KT 8000 SCT008 OVC030 25/24 Q1011
TAF FOOG 242300Z 2500/2524 24006KT 9999 SCT010 FEW020CB BKN030 
     TEMPO 2419/2421 TS 
     PROB30 
     TEMPO 2422/2506 4000 TSRA BKN006 FEW016CB OVC025
       
FOOL 250500Z 09004KT 9000 FEW010 23/23 Q1010 NOSIG
TAF FOOL 250500Z 2506/2612 12006KT 9999 SCT010 
     TEMPO 2515/2521 TS SCT010 FEW020CB 
     BECMG 262601/2604 BKN008 FEW018CB
       
FOON 250500Z VRB02KT 0200 FG BKN001 20/20 Q1013
FOOL 250500Z 09004KT 9000 FEW010 23/23 Q1010 NOSIG
TAF FOOL 250500Z 2506/2612 12006KT 9999 SCT010 
     TEMPO 2515/2521 TS SCT010 FEW020CB 
     BECMG 262601/2604 BKN008 FEW018CB
       
FOOG 250500Z 20006KT 8000 SCT008 OVC030 25/24 Q1011
TAF FOOG 242300Z 2500/2524 24006KT 9999 SCT010 FEW020CB BKN030 
     TEMPO 2419/2421 TS 
     PROB30 
     TEMPO 2422/2506 4000 TSRA BKN006 FEW016CB OVC025